createdAt,value
2023-03-26T00:01:23.992Z,67.93
2023-03-26T00:03:50.316Z,66.59
2023-03-26T00:06:16.617Z,66.11
2023-03-26T00:08:42.921Z,65.26
2023-03-26T00:11:09.250Z,65.16
2023-03-26T00:13:35.549Z,64.51
2023-03-26T00:16:01.872Z,65.07
2023-03-26T00:18:28.315Z,65.49
2023-03-26T00:20:54.606Z,67.05
2023-03-26T00:23:20.904Z,69.55
2023-03-26T00:25:49.151Z,68.86
2023-03-26T00:28:15.812Z,68.40
2023-03-26T00:30:42.171Z,67.95
2023-03-26T00:33:08.595Z,68.72
2023-03-26T00:35:34.957Z,68.26
2023-03-26T00:38:01.287Z,68.85
2023-03-26T00:40:27.624Z,68.87
2023-03-26T00:42:53.912Z,68.42
2023-03-26T00:45:20.217Z,68.07
2023-03-26T00:47:46.553Z,68.66
2023-03-26T00:50:12.898Z,68.73
2023-03-26T00:52:39.219Z,68.92
2023-03-26T00:55:05.546Z,69.07
2023-03-26T00:57:35.743Z,69.77
2023-03-26T01:00:02.591Z,69.97
2023-03-26T01:02:28.988Z,69.81
2023-03-26T01:04:55.328Z,68.99
2023-03-26T01:07:21.665Z,68.54
2023-03-26T01:09:47.970Z,69.18
2023-03-26T01:12:14.267Z,67.99
2023-03-26T01:14:40.582Z,69.94
2023-03-26T01:17:07.016Z,69.82
2023-03-26T01:19:33.435Z,68.58
2023-03-26T01:21:59.729Z,68.03
2023-03-26T01:24:26.095Z,67.27
2023-03-26T01:26:52.390Z,66.56
2023-03-26T01:29:18.680Z,65.89
2023-03-26T01:31:44.999Z,65.77
2023-03-26T01:34:11.293Z,66.06
2023-03-26T01:36:37.586Z,65.57
2023-03-26T01:39:03.913Z,66.83
2023-03-26T01:41:30.207Z,66.60
2023-03-26T01:43:56.527Z,66.54
2023-03-26T01:46:22.906Z,66.77
2023-03-26T01:48:49.210Z,68.03
2023-03-26T01:51:15.511Z,68.15
2023-03-26T01:53:41.822Z,67.88
2023-03-26T01:56:08.118Z,68.98
2023-03-26T01:58:34.426Z,69.28
2023-03-26T02:01:00.763Z,69.27
2023-03-26T02:03:27.200Z,69.69
2023-03-26T02:05:53.816Z,69.50
2023-03-26T02:08:20.356Z,68.93
2023-03-26T02:10:46.675Z,68.26
2023-03-26T02:13:12.969Z,68.57
2023-03-26T02:15:39.275Z,68.44
2023-03-26T02:18:05.580Z,70.93
2023-03-26T02:20:31.930Z,71.65
2023-03-26T02:22:58.252Z,71.34
2023-03-26T02:25:24.588Z,70.75
2023-03-26T02:27:50.909Z,70.39
2023-03-26T02:30:17.273Z,69.82
2023-03-26T02:32:43.605Z,70.89
2023-03-26T02:35:10.016Z,70.97
2023-03-26T02:37:36.512Z,70.62
2023-03-26T02:40:02.815Z,70.80
2023-03-26T02:42:29.115Z,70.11
2023-03-26T02:44:55.442Z,68.92
2023-03-26T02:47:21.741Z,68.14
2023-03-26T02:49:48.046Z,67.66
2023-03-26T02:52:14.354Z,67.71
2023-03-26T02:54:40.645Z,68.14
2023-03-26T02:57:06.994Z,66.30
2023-03-26T02:59:33.312Z,66.99
2023-03-26T03:01:59.643Z,66.54
2023-03-26T03:04:25.979Z,65.56
2023-03-26T03:06:52.293Z,65.46
2023-03-26T03:09:18.586Z,65.79
2023-03-26T03:11:44.896Z,65.37
2023-03-26T03:14:11.207Z,64.77
2023-03-26T03:16:38.662Z,64.73
2023-03-26T03:19:05.004Z,64.44
2023-03-26T03:21:31.311Z,64.76
2023-03-26T03:24:00.156Z,65.02
2023-03-26T03:26:26.835Z,64.39
2023-03-26T03:28:53.150Z,64.13
2023-03-26T03:31:19.511Z,65.58
2023-03-26T03:33:45.858Z,67.40
2023-03-26T03:36:20.733Z,69.92
2023-03-26T03:38:48.065Z,69.00
2023-03-26T03:41:14.403Z,69.81
2023-03-26T03:43:40.699Z,68.53
2023-03-26T03:46:07.039Z,68.41
2023-03-26T03:48:33.394Z,68.88
2023-03-26T03:50:59.694Z,68.40
2023-03-26T03:53:26.065Z,68.18
2023-03-26T03:55:52.551Z,68.91
2023-03-26T03:58:19.052Z,69.36
2023-03-26T04:00:45.347Z,72.35
2023-03-26T04:03:11.764Z,71.78
2023-03-26T04:05:38.106Z,71.50
2023-03-26T04:08:04.423Z,70.52
2023-03-26T04:10:30.748Z,69.66
2023-03-26T04:12:57.059Z,69.26
2023-03-26T04:15:23.387Z,69.12
2023-03-26T04:17:49.725Z,68.64
2023-03-26T04:20:16.171Z,68.48
2023-03-26T04:22:42.523Z,68.00
2023-03-26T04:25:08.842Z,68.14
2023-03-26T04:27:35.143Z,67.13
2023-03-26T04:30:01.440Z,67.70
2023-03-26T04:32:27.785Z,67.02
2023-03-26T04:34:54.105Z,66.92
2023-03-26T04:37:20.412Z,67.57
2023-03-26T04:39:46.754Z,66.78
2023-03-26T04:42:13.039Z,66.73
2023-03-26T04:44:39.328Z,66.10
2023-03-26T04:47:05.656Z,66.94
2023-03-26T04:49:31.958Z,66.56
2023-03-26T04:51:58.258Z,66.55
2023-03-26T04:54:24.592Z,67.57
2023-03-26T04:56:50.903Z,67.29
2023-03-26T04:59:17.215Z,68.99
2023-03-26T05:01:43.576Z,70.03
2023-03-26T05:04:09.908Z,71.06
2023-03-26T05:06:36.228Z,71.49
2023-03-26T05:09:02.532Z,70.41
2023-03-26T05:11:28.830Z,70.61
2023-03-26T05:13:55.130Z,71.79
2023-03-26T05:16:21.486Z,72.96
2023-03-26T05:18:47.842Z,73.07
2023-03-26T05:21:14.128Z,73.00
2023-03-26T05:23:40.476Z,76.35
2023-03-26T05:26:06.828Z,76.75
2023-03-26T05:28:33.132Z,76.39
2023-03-26T05:30:59.450Z,76.95
2023-03-26T05:33:25.875Z,78.95
2023-03-26T05:35:52.277Z,76.58
2023-03-26T05:38:18.706Z,76.26
2023-03-26T05:40:45.002Z,77.43
2023-03-26T05:43:11.299Z,76.84
2023-03-26T05:45:37.646Z,76.34
2023-03-26T05:48:03.994Z,75.62
2023-03-26T05:50:30.337Z,76.85
2023-03-26T05:52:56.650Z,78.45
2023-03-26T05:55:22.975Z,77.92
2023-03-26T05:57:49.268Z,77.37
2023-03-26T06:00:15.593Z,77.08
2023-03-26T06:02:41.904Z,77.56
2023-03-26T06:05:08.217Z,78.43
2023-03-26T06:07:34.539Z,80.92
2023-03-26T06:10:00.832Z,80.41
2023-03-26T06:12:27.141Z,81.05
2023-03-26T06:14:53.454Z,80.86
2023-03-26T06:17:19.746Z,80.86
2023-03-26T06:19:46.062Z,80.72
2023-03-26T06:22:12.416Z,80.60
2023-03-26T06:24:38.782Z,80.34
2023-03-26T06:27:05.088Z,80.42
2023-03-26T06:29:31.400Z,80.35
2023-03-26T06:32:06.162Z,80.01
2023-03-26T06:34:38.956Z,79.37
2023-03-26T06:37:05.254Z,78.53
2023-03-26T06:39:31.551Z,78.22
2023-03-26T06:41:57.884Z,78.42
2023-03-26T06:44:24.188Z,77.88
2023-03-26T06:46:50.560Z,78.80
2023-03-26T06:49:16.943Z,78.29
2023-03-26T06:51:43.243Z,78.95
2023-03-26T06:54:09.544Z,78.23
2023-03-26T06:56:35.924Z,78.91
2023-03-26T06:59:02.259Z,78.22
2023-03-26T07:01:28.691Z,79.39
2023-03-26T07:03:55.033Z,78.59
2023-03-26T07:06:26.224Z,79.00
2023-03-26T07:08:52.601Z,79.12
2023-03-26T07:11:18.925Z,79.18
2023-03-26T07:13:45.217Z,80.56
2023-03-26T07:16:11.533Z,81.04
2023-03-26T07:18:37.900Z,80.76
2023-03-26T07:21:04.210Z,80.08
2023-03-26T07:23:30.508Z,80.02
2023-03-26T07:25:56.884Z,79.64
2023-03-26T07:28:23.209Z,80.11
2023-03-26T07:30:49.503Z,79.57
2023-03-26T07:33:15.899Z,79.62
2023-03-26T07:35:42.207Z,78.50
2023-03-26T07:38:08.505Z,78.85
2023-03-26T07:40:34.824Z,79.10
2023-03-26T07:43:01.112Z,79.69
2023-03-26T07:45:27.419Z,77.92
2023-03-26T07:47:53.829Z,78.61
2023-03-26T07:50:20.240Z,78.10
2023-03-26T07:52:46.541Z,79.89
2023-03-26T07:55:12.900Z,82.12
2023-03-26T07:57:39.249Z,79.56
2023-03-26T08:00:05.589Z,80.38
2023-03-26T08:02:31.961Z,81.29
2023-03-26T08:04:58.403Z,81.54
2023-03-26T08:07:24.784Z,82.05
2023-03-26T08:09:51.096Z,82.11
2023-03-26T08:12:17.406Z,82.60
2023-03-26T08:14:43.707Z,81.57
2023-03-26T08:17:10.043Z,83.07
2023-03-26T08:19:36.350Z,80.84
2023-03-26T08:22:02.640Z,81.54
2023-03-26T08:24:28.974Z,82.08
2023-03-26T08:26:55.290Z,81.47
2023-03-26T08:29:21.628Z,80.87
2023-03-26T08:31:47.992Z,80.78
2023-03-26T08:34:14.292Z,80.71
2023-03-26T08:36:40.599Z,80.25
2023-03-26T08:39:06.949Z,79.41
2023-03-26T08:41:33.251Z,79.81
2023-03-26T08:43:59.545Z,79.37
2023-03-26T08:46:25.920Z,79.64
2023-03-26T08:48:52.240Z,79.07
2023-03-26T08:51:18.538Z,78.27
2023-03-26T08:53:44.861Z,78.53
2023-03-26T08:56:11.159Z,78.15
2023-03-26T08:58:37.585Z,77.06
2023-03-26T09:01:03.945Z,77.61
2023-03-26T09:03:30.253Z,76.47
2023-03-26T09:05:56.562Z,76.93
2023-03-26T09:08:22.882Z,76.76
2023-03-26T09:10:49.190Z,76.75
2023-03-26T09:13:15.482Z,77.35
2023-03-26T09:15:41.820Z,77.22
2023-03-26T09:18:08.133Z,76.48
2023-03-26T09:20:34.509Z,77.04
2023-03-26T09:23:00.834Z,76.84
2023-03-26T09:25:27.176Z,76.30
2023-03-26T09:27:53.474Z,76.12
2023-03-26T09:30:19.791Z,77.37
2023-03-26T09:32:46.096Z,75.89
2023-03-26T09:35:13.423Z,76.44
2023-03-26T09:37:57.388Z,75.80
2023-03-26T09:40:24.734Z,75.43
2023-03-26T09:42:51.065Z,74.76
2023-03-26T09:45:17.365Z,75.69
2023-03-26T09:47:43.745Z,75.27
2023-03-26T09:50:10.102Z,73.79
2023-03-26T09:52:36.408Z,74.14
2023-03-26T09:55:02.721Z,74.72
2023-03-26T09:57:29.183Z,73.92
2023-03-26T09:59:55.514Z,74.34
2023-03-26T10:02:21.807Z,74.01
2023-03-26T10:05:08.172Z,74.43
2023-03-26T10:07:34.478Z,72.50
2023-03-26T10:10:00.775Z,72.97
2023-03-26T10:12:27.103Z,72.59
2023-03-26T10:14:53.406Z,71.99
2023-03-26T10:17:19.843Z,71.28
2023-03-26T10:19:46.198Z,71.00
2023-03-26T10:22:12.491Z,69.77
2023-03-26T10:24:38.802Z,69.42
2023-03-26T10:27:09.113Z,69.07
2023-03-26T10:29:37.006Z,69.46
2023-03-26T10:32:03.305Z,67.80
2023-03-26T10:34:29.803Z,68.12
2023-03-26T10:36:56.237Z,68.22
2023-03-26T10:39:36.511Z,67.66
2023-03-26T10:42:05.703Z,68.43
2023-03-26T10:44:32.024Z,68.53
2023-03-26T10:46:58.362Z,68.64
2023-03-26T10:49:24.710Z,70.32
2023-03-26T10:51:51.009Z,69.95
2023-03-26T10:54:17.315Z,68.42
2023-03-26T10:56:43.680Z,69.76
2023-03-26T10:59:10.024Z,69.12
2023-03-26T11:01:36.353Z,69.46
2023-03-26T11:04:02.711Z,69.17
2023-03-26T11:06:29.005Z,68.23
2023-03-26T11:08:55.430Z,67.01
2023-03-26T11:11:21.792Z,67.07
2023-03-26T11:13:48.087Z,66.06
2023-03-26T11:16:14.460Z,63.63
2023-03-26T11:18:40.820Z,64.07
2023-03-26T11:21:19.302Z,62.29
2023-03-26T11:23:46.736Z,64.75
2023-03-26T11:26:13.064Z,64.82
2023-03-26T11:28:39.451Z,65.39
2023-03-26T11:31:05.806Z,65.31
2023-03-26T11:33:32.778Z,65.33
2023-03-26T11:35:59.311Z,66.40
2023-03-26T11:38:25.669Z,64.56
2023-03-26T11:40:52.016Z,64.70
2023-03-26T11:43:18.343Z,64.63
2023-03-26T11:45:44.677Z,65.09
2023-03-26T11:48:10.961Z,66.40
2023-03-26T11:50:37.255Z,65.93
2023-03-26T11:53:03.571Z,66.51
2023-03-26T11:55:29.869Z,66.45
2023-03-26T11:57:56.170Z,66.38
2023-03-26T12:00:22.505Z,65.98
2023-03-26T12:02:48.822Z,65.80
2023-03-26T12:05:15.142Z,63.79
2023-03-26T12:07:41.510Z,64.94
2023-03-26T12:10:18.117Z,63.94
2023-03-26T12:12:45.452Z,64.87
2023-03-26T12:15:11.743Z,65.79
2023-03-26T12:17:38.063Z,64.27
2023-03-26T12:20:04.389Z,57.35
2023-03-26T12:22:30.699Z,52.05
2023-03-26T12:24:56.983Z,53.18
2023-03-26T12:27:23.285Z,51.62
2023-03-26T12:29:49.581Z,52.46
2023-03-26T12:32:15.882Z,60.78
2023-03-26T12:34:42.200Z,63.47
2023-03-26T12:37:08.506Z,64.40
2023-03-26T12:40:10.275Z,62.42
2023-03-26T12:44:43.345Z,63.66
2023-03-26T12:45:07.335Z,64.29
2023-03-26T12:47:57.212Z,65.33
2023-03-26T12:50:34.154Z,66.42
2023-03-26T12:53:01.784Z,68.23
2023-03-26T12:55:28.097Z,71.25
2023-03-26T12:57:54.398Z,74.32
2023-03-26T13:00:20.719Z,78.02
2023-03-26T13:02:47.124Z,75.75
2023-03-26T13:05:13.512Z,72.61
2023-03-26T13:07:39.831Z,71.12
2023-03-26T13:10:06.128Z,70.36
2023-03-26T13:12:32.414Z,68.35
2023-03-26T13:14:58.862Z,66.57
2023-03-26T13:17:25.196Z,66.92
2023-03-26T13:19:51.534Z,67.25
2023-03-26T13:22:17.834Z,66.87
2023-03-26T13:24:44.308Z,67.38
2023-03-26T13:27:10.602Z,65.93
2023-03-26T13:29:36.934Z,68.39
2023-03-26T13:32:03.233Z,69.61
2023-03-26T13:34:29.725Z,68.86
2023-03-26T13:36:56.073Z,66.56
2023-03-26T13:39:22.376Z,65.94
2023-03-26T13:41:48.661Z,68.87
2023-03-26T13:44:14.970Z,68.43
2023-03-26T13:46:41.299Z,66.99
2023-03-26T13:49:07.632Z,66.96
2023-03-26T13:51:33.951Z,67.46
2023-03-26T13:54:00.248Z,67.77
2023-03-26T13:56:26.565Z,67.75
2023-03-26T13:58:53.149Z,65.25
2023-03-26T14:01:19.510Z,65.12
2023-03-26T14:03:45.925Z,63.89
2023-03-26T14:06:12.356Z,62.74
2023-03-26T14:08:38.670Z,63.22
2023-03-26T14:11:04.964Z,62.71
2023-03-26T14:13:31.300Z,61.79
2023-03-26T14:15:57.778Z,61.30
2023-03-26T14:18:24.198Z,61.37
2023-03-26T14:20:50.548Z,62.79
2023-03-26T14:23:16.847Z,60.39
2023-03-26T14:25:43.146Z,60.28
2023-03-26T14:28:09.470Z,61.41
2023-03-26T14:30:35.780Z,60.31
2023-03-26T14:33:02.138Z,58.46
2023-03-26T14:35:28.497Z,59.29
2023-03-26T14:37:54.806Z,58.48
2023-03-26T14:40:21.150Z,58.77
2023-03-26T14:42:47.473Z,58.66
2023-03-26T14:45:13.764Z,60.39
2023-03-26T14:47:40.306Z,60.17
2023-03-26T14:50:06.687Z,58.46
2023-03-26T14:52:32.976Z,59.68
2023-03-26T14:55:02.125Z,58.65
2023-03-26T14:57:28.448Z,57.10
2023-03-26T14:59:54.745Z,57.16
2023-03-26T15:02:21.212Z,57.04
2023-03-26T15:04:47.594Z,56.10
2023-03-26T15:07:13.876Z,56.96
2023-03-26T15:09:40.155Z,57.05
2023-03-26T15:12:12.673Z,58.19
2023-03-26T15:14:39.638Z,58.44
2023-03-26T15:17:05.938Z,60.17
2023-03-26T15:19:32.236Z,61.95
2023-03-26T15:21:58.523Z,62.92
2023-03-26T15:24:24.871Z,63.76
2023-03-26T15:26:51.168Z,63.44
2023-03-26T15:29:17.472Z,64.34
2023-03-26T15:31:43.834Z,64.16
2023-03-26T15:34:10.126Z,63.01
2023-03-26T15:36:36.411Z,62.42
2023-03-26T15:39:02.707Z,62.45
2023-03-26T15:41:29.000Z,62.25
2023-03-26T15:44:24.615Z,62.11
2023-03-26T15:46:41.710Z,62.41
2023-03-26T15:49:07.998Z,62.59
2023-03-26T15:51:47.105Z,62.52
2023-03-26T15:54:14.171Z,62.95
2023-03-26T15:56:40.558Z,63.24
2023-03-26T15:59:06.895Z,61.00
2023-03-26T16:01:33.293Z,60.40
2023-03-26T16:03:59.626Z,59.98
2023-03-26T16:06:25.918Z,60.24
2023-03-26T16:08:52.291Z,59.87
2023-03-26T16:11:18.581Z,60.71
2023-03-26T16:13:44.911Z,61.05
2023-03-26T16:16:11.267Z,59.97
2023-03-26T16:18:37.604Z,58.56
2023-03-26T16:21:03.906Z,58.94
2023-03-26T16:23:30.213Z,58.70
2023-03-26T16:25:56.508Z,58.00
2023-03-26T16:28:22.811Z,59.24
2023-03-26T16:30:49.420Z,59.76
2023-03-26T16:33:16.032Z,58.71
2023-03-26T16:35:42.426Z,57.84
2023-03-26T16:38:08.748Z,58.22
2023-03-26T16:40:35.044Z,58.46
2023-03-26T16:43:01.338Z,57.38
2023-03-26T16:45:27.652Z,57.81
2023-03-26T16:47:54.015Z,57.40
2023-03-26T16:50:20.329Z,57.15
2023-03-26T16:52:46.653Z,57.36
2023-03-26T16:55:12.987Z,57.17
2023-03-26T16:57:39.274Z,58.11
2023-03-26T17:00:07.406Z,58.63
2023-03-26T17:02:34.063Z,58.62
2023-03-26T17:05:00.402Z,59.55
2023-03-26T17:07:26.702Z,59.81
2023-03-26T17:09:52.998Z,60.80
2023-03-26T17:12:19.297Z,61.26
2023-03-26T17:14:45.605Z,61.33
2023-03-26T17:17:11.885Z,60.49
2023-03-26T17:19:38.178Z,60.87
2023-03-26T17:22:04.495Z,60.24
2023-03-26T17:24:30.786Z,61.33
2023-03-26T17:26:57.083Z,61.80
2023-03-26T17:29:23.409Z,62.60
2023-03-26T17:31:49.758Z,61.48
2023-03-26T17:34:16.064Z,61.66
2023-03-26T17:36:42.404Z,61.22
2023-03-26T17:39:08.709Z,61.32
2023-03-26T17:41:35.163Z,60.87
2023-03-26T17:44:01.490Z,61.86
2023-03-26T17:46:27.803Z,60.74
2023-03-26T17:48:54.098Z,60.17
2023-03-26T17:51:20.404Z,60.15
2023-03-26T17:53:46.701Z,60.62
2023-03-26T17:56:13.005Z,60.91
2023-03-26T17:58:39.388Z,61.73
2023-03-26T18:01:05.727Z,61.65
2023-03-26T18:03:32.081Z,61.94
2023-03-26T18:05:58.509Z,62.82
2023-03-26T18:08:24.842Z,62.86
2023-03-26T18:10:51.122Z,62.30
2023-03-26T18:13:17.444Z,63.12
2023-03-26T18:15:45.038Z,62.53
2023-03-26T18:18:11.462Z,63.40
2023-03-26T18:20:37.776Z,62.63
2023-03-26T18:23:04.069Z,63.13
2023-03-26T18:25:30.371Z,63.31
2023-03-26T18:27:56.689Z,62.31
2023-03-26T18:30:22.972Z,63.45
2023-03-26T18:32:49.278Z,62.87
2023-03-26T18:35:15.636Z,62.28
2023-03-26T18:37:41.972Z,61.97
2023-03-26T18:40:08.258Z,63.19
2023-03-26T18:42:34.617Z,63.42
2023-03-26T18:45:02.165Z,64.01
2023-03-26T18:47:30.344Z,64.83
2023-03-26T18:49:56.694Z,68.37
2023-03-26T18:52:23.011Z,68.79
2023-03-26T18:54:49.301Z,69.22
2023-03-26T18:57:16.383Z,70.48
2023-03-26T18:59:42.938Z,73.83
2023-03-26T19:02:09.421Z,77.07
2023-03-26T19:04:35.759Z,76.02
2023-03-26T19:07:02.072Z,73.79
2023-03-26T19:09:32.049Z,75.13
2023-03-26T19:11:58.983Z,72.97
2023-03-26T19:14:25.267Z,73.36
2023-03-26T19:16:51.589Z,75.83
2023-03-26T19:19:17.901Z,75.22
2023-03-26T19:21:44.197Z,76.16
2023-03-26T19:24:10.504Z,75.93
2023-03-26T19:26:36.835Z,77.57
2023-03-26T19:29:03.126Z,75.45
2023-03-26T19:31:29.468Z,76.88
2023-03-26T19:33:55.779Z,76.51
2023-03-26T19:36:22.065Z,77.15
2023-03-26T19:38:48.367Z,78.79
2023-03-26T19:41:14.719Z,77.53
2023-03-26T19:43:41.011Z,77.13
2023-03-26T19:46:07.314Z,78.23
2023-03-26T19:48:45.896Z,78.00
2023-03-26T19:51:13.265Z,77.33
2023-03-26T19:53:39.587Z,76.97
2023-03-26T19:56:06.398Z,76.14
2023-03-26T19:58:32.795Z,75.39
2023-03-26T20:00:59.308Z,75.95
2023-03-26T20:03:25.900Z,75.47
2023-03-26T20:05:52.221Z,74.41
2023-03-26T20:08:18.539Z,75.02
2023-03-26T20:10:44.831Z,75.13
2023-03-26T20:13:11.141Z,76.04
2023-03-26T20:15:37.457Z,75.82
2023-03-26T20:18:03.762Z,76.38
2023-03-26T20:20:30.055Z,76.61
2023-03-26T20:22:56.360Z,77.04
2023-03-26T20:25:22.637Z,76.94
2023-03-26T20:27:48.950Z,76.70
2023-03-26T20:30:16.460Z,76.90
2023-03-26T20:32:45.736Z,77.68
2023-03-26T20:35:12.444Z,78.04
2023-03-26T20:37:38.852Z,75.93
2023-03-26T20:40:05.141Z,75.63
2023-03-26T20:42:31.427Z,74.80
2023-03-26T20:44:57.736Z,75.61
2023-03-26T20:47:24.063Z,75.75
2023-03-26T20:49:50.366Z,75.28
2023-03-26T20:52:16.704Z,75.03
2023-03-26T20:54:43.001Z,74.45
2023-03-26T20:57:09.304Z,75.08
2023-03-26T20:59:35.674Z,74.15
2023-03-26T21:02:02.103Z,74.10
2023-03-26T21:04:28.436Z,74.75
2023-03-26T21:06:57.845Z,72.64
2023-03-26T21:09:29.878Z,72.53
2023-03-26T21:11:56.191Z,71.82
2023-03-26T21:14:22.480Z,71.77
2023-03-26T21:16:48.856Z,72.36
2023-03-26T21:19:15.207Z,73.47
2023-03-26T21:21:41.495Z,73.97
2023-03-26T21:24:07.792Z,75.09
2023-03-26T21:26:34.102Z,76.28
2023-03-26T21:29:08.015Z,75.02
2023-03-26T21:31:34.375Z,74.37
2023-03-26T21:34:00.676Z,73.95
2023-03-26T21:36:26.990Z,74.80
2023-03-26T21:38:53.304Z,74.38
2023-03-26T21:41:19.634Z,75.73
2023-03-26T21:43:45.921Z,76.36
2023-03-26T21:46:12.250Z,76.46
2023-03-26T21:48:38.556Z,76.00
2023-03-26T21:51:04.859Z,73.99
2023-03-26T21:53:31.216Z,75.01
2023-03-26T21:55:57.517Z,75.29
2023-03-26T21:58:23.885Z,74.61
2023-03-26T22:00:50.373Z,76.20
2023-03-26T22:03:16.766Z,74.78
2023-03-26T22:05:43.176Z,76.27
2023-03-26T22:08:09.501Z,74.55
2023-03-26T22:10:35.828Z,75.19
2023-03-26T22:13:02.119Z,75.41
2023-03-26T22:15:28.427Z,75.37
2023-03-26T22:17:54.881Z,77.16
2023-03-26T22:20:21.334Z,77.76
2023-03-26T22:22:47.651Z,76.50
2023-03-26T22:25:13.948Z,77.29
2023-03-26T22:27:43.894Z,75.40
2023-03-26T22:30:10.851Z,76.78
2023-03-26T22:32:37.198Z,79.55
2023-03-26T22:35:03.490Z,77.63
2023-03-26T22:37:29.818Z,78.49
2023-03-26T22:39:56.118Z,75.65
2023-03-26T22:42:22.412Z,77.97
2023-03-26T22:44:48.717Z,78.97
2023-03-26T22:47:15.082Z,78.55
2023-03-26T22:49:41.366Z,79.13
2023-03-26T22:52:07.693Z,78.44
2023-03-26T22:54:33.991Z,78.45
2023-03-26T22:57:00.391Z,76.63
2023-03-26T22:59:26.752Z,76.90
2023-03-26T23:01:53.056Z,76.94
2023-03-26T23:04:31.628Z,75.36
2023-03-26T23:06:58.615Z,75.04
2023-03-26T23:09:24.914Z,74.40
2023-03-26T23:11:51.205Z,74.19
2023-03-26T23:14:17.520Z,76.81
2023-03-26T23:16:43.825Z,76.80
2023-03-26T23:19:10.119Z,76.60
2023-03-26T23:21:36.443Z,77.41
2023-03-26T23:24:02.734Z,76.84
2023-03-26T23:26:30.749Z,76.59
2023-03-26T23:28:59.049Z,74.44
2023-03-26T23:31:25.408Z,75.25
2023-03-26T23:33:51.775Z,75.58
2023-03-26T23:36:18.603Z,74.21
2023-03-26T23:38:45.166Z,73.82
2023-03-26T23:41:11.461Z,75.58
2023-03-26T23:43:37.785Z,75.53
2023-03-26T23:46:04.115Z,76.68
2023-03-26T23:48:30.439Z,77.04
2023-03-26T23:51:04.063Z,76.14
2023-03-26T23:53:30.888Z,77.36
2023-03-26T23:55:57.217Z,76.81
2023-03-26T23:58:23.513Z,78.24
